EDDNUKKK

Guest
Details From EDDN - Nurnberg
To UKKK - Zhuliany Intl
Flight Number -
Tags Generated
Created
Modified
Stats Distance 749 nm / 1,387 km
Max Altitude 0 ft / 0 m
Waypoints 4
Social Downloads 0
Likes 0
Share VATSIM

Download

Looking for another format? Having issues loading an existing format? Contact us
Advertisement - Login to hide

Notes

Generated

Route

EDDN GUBKO I UKKK

ID Type Via Altitude Latitude Longitude Leg Dist Tot Dist Heading (true) Name
O EDDN APT - 0 ft / 0 m 49.50055˚ 11.05918˚ - 0 nm - -
GUBKO FIX - 0 ft / 0 m 50.15988˚ 17.59255˚ 256 nm 256 nm 79° / 84° -
I NDB - 0 ft / 0 m 50.40032˚ 30.41906˚ 491 nm 747 nm 83° / 93° ZHULIANY NDB
O UKKK APT - 0 ft / 0 m 50.40113˚ 30.43699˚ 0 nm 748 nm 86° / 86° -

Altitude Profile

Advertisement - Login to hide

Weather


0- 5 10 15 20 25 30 35+ Temperature / ° C

Clouds and Precipitation
Forecast for 2017-12-14 00:00 UTC. Updated 2 hours ago

Ground ~20,000 ft ~40,000 ft Winds

EDDN

Details ICAO EDDN (NUE)
Name Nurnberg
Region Germany - Civil
Timezone Europe/Berlin (UTC+1.0)
Stats Elevation 1,045 ft / 319 m (AMSL)
Location 49.498744° 11.077580°
Runways 1
Magnetic Variation 3.018° E

METAR

EDDN 140050Z 19012KT 9999 -SHRA SCT016 BKN042 04/02 Q0994 R28/29//94

Decode

TAF

TAF TAF EDDN 132300Z 1400/1424 20015G25KT 9999 SCT020 BKN040 TEMPO 1400/1406 4000 SHRA BKN015TCU BECMG 1403/1406 24015G35KT PROB30 TEMPO 1413/1418 4000 SHRAGS BKN012CB BECMG 1416/1418 19010KT TEMPO 1418/1424 SHRASN BKN014TCU

Decode

Departure Runways

ID Width Length Bearing (true) Bearing (mag) Surface Threshold Offset Overrun Length
10 148 ft / 45 m 8,819 ft / 2,688 m 98.60° 95.58° Asphalt 0 ft / 0 m 0 ft / 0 m
28 148 ft / 45 m 8,819 ft / 2,688 m 278.63° 275.61° Asphalt 0 ft / 0 m 0 ft / 0 m

UKKK

Details ICAO UKKK (IEV)
Name ZHULIANY INTL
Region Ukraine
Timezone Europe/Kiev (UTC+2.0)
Stats Elevation 586 ft / 179 m (AMSL)
Location 50.401694° 30.449697°
Runways 1
Magnetic Variation 7.597° E

METAR

UKKK 140100Z 02002MPS 330V060 9999 BKN003 01/00 Q1011 R08/290350 TEMPO BKN001

Decode

TAF

TAF TAF UKKK 132302Z 1400/1424 01003G08MPS 2100 -SN BR OVC002 TEMPO 1400/1408 0300 SHSN FZFG BKN001 BKN010CB PROB40 TEMPO 1400/1408 -FZRASN BECMG 1408/1409 19004G09MPS 5000 BR BKN007 TX02/1412Z TNM01/1404Z

Decode

Destination Runways

ID Width Length Bearing (true) Bearing (mag) Surface Threshold Offset Overrun Length
08 161 ft / 49 m 5,926 ft / 1,806 m 86.02° 78.42° Concrete 0 ft / 0 m 0 ft / 0 m
26 161 ft / 49 m 5,926 ft / 1,806 m 266.04° 258.44° Concrete 0 ft / 0 m 1,132 ft / 345 m

Approach Navaids

Runway Type Ident Frequency Range Bearing (true) Bearing (mag) Slope Elevation
08 Localiser IKI 111.70 MHz 18 nm / 33 km 86.26° 78.66° - 586 ft / 179 m (AMSL)
08 Glidescope IKI 111.70 MHz 10 nm / 19 km 86.03° 78.43° 3.00° 586 ft / 179 m (AMSL)
26 Localiser IKV 108.30 MHz 18 nm / 33 km 266.67° 259.08° - 586 ft / 179 m (AMSL)
26 Glidescope IKV 108.30 MHz 10 nm / 19 km 266.03° 258.43° 3.00° 586 ft / 179 m (AMSL)